createdAt,value
2017-03-06T20:41:23.939Z,0
2017-03-06T20:42:04.377Z,0
2017-03-06T20:42:44.757Z,0
2017-03-06T21:06:47.003Z,0
2017-03-06T21:07:27.450Z,0
2017-03-06T22:06:08.745Z,0
2017-03-06T22:06:49.185Z,0
2017-03-06T22:07:29.695Z,0
2017-03-06T22:08:10.244Z,982.36
2017-03-06T22:08:50.661Z,982.36
2017-03-06T22:09:31.082Z,982.36
2017-03-06T22:10:11.580Z,982.36
2017-03-06T22:10:52.174Z,982.36
2017-03-06T22:11:32.575Z,982.36
2017-03-06T22:12:13.031Z,982.36
2017-03-06T22:12:53.513Z,982.36
2017-03-06T22:13:33.934Z,982.36
2017-03-06T22:14:14.298Z,982.36
2017-03-06T22:14:54.766Z,982.53
2017-03-06T22:15:35.166Z,982.53
2017-03-06T22:16:15.608Z,982.51
2017-03-06T22:16:56.058Z,982.51
2017-03-06T22:17:36.632Z,982.55
2017-03-06T22:18:17.177Z,982.55
2017-03-06T22:18:57.653Z,982.55
2017-03-06T22:19:38.190Z,982.55
2017-03-06T22:20:18.853Z,982.55
2017-03-06T22:20:59.266Z,982.55
2017-03-06T22:21:39.742Z,982.55
2017-03-06T22:22:20.235Z,982.55
2017-03-06T22:23:00.658Z,982.55
2017-03-06T22:23:41.070Z,982.55
2017-03-06T22:24:21.510Z,982.55
2017-03-06T22:25:02.101Z,982.55
2017-03-06T22:25:42.653Z,982.58
2017-03-06T22:26:23.221Z,982.58
2017-03-06T22:27:03.671Z,982.58
2017-03-06T22:27:44.044Z,982.58
2017-03-06T22:28:24.607Z,982.58
2017-03-06T22:29:05.116Z,982.58
2017-03-06T22:29:45.592Z,982.58
2017-03-06T22:30:26.056Z,982.58
2017-03-06T22:31:06.608Z,982.58
2017-03-06T22:31:47.058Z,982.58
2017-03-06T22:32:27.709Z,982.63
2017-03-06T22:33:08.174Z,982.63
2017-03-06T22:33:48.651Z,982.63
2017-03-06T22:34:29.111Z,982.63
2017-03-06T22:35:09.575Z,982.63
2017-03-06T22:35:49.997Z,982.63
2017-03-06T22:36:30.443Z,982.67
2017-03-06T22:37:10.952Z,982.67
2017-03-06T22:37:51.450Z,982.67
2017-03-06T22:38:31.910Z,982.67
2017-03-06T22:39:12.310Z,982.67
2017-03-06T22:39:52.709Z,982.7
2017-03-06T22:40:33.187Z,982.7
2017-03-06T22:41:13.706Z,982.7
2017-03-06T22:41:54.067Z,982.7
2017-03-06T22:42:34.480Z,982.7
2017-03-06T22:43:14.950Z,982.7
2017-03-06T22:43:55.411Z,982.7
2017-03-06T22:44:35.956Z,982.7
2017-03-06T22:45:16.302Z,982.7
2017-03-06T22:45:56.789Z,982.7
2017-03-06T22:46:37.241Z,982.7
2017-03-06T22:47:17.664Z,982.7
2017-03-06T22:47:58.157Z,982.66
2017-03-06T22:48:38.706Z,982.66
2017-03-06T22:49:19.281Z,982.65
2017-03-06T22:49:59.678Z,982.65
2017-03-06T22:50:40.087Z,982.65
2017-03-06T22:51:20.559Z,982.65
2017-03-06T22:52:01.028Z,982.69
2017-03-06T22:52:41.501Z,982.71
2017-03-06T22:53:24.980Z,982.71
2017-03-06T22:54:05.311Z,982.71
2017-03-06T22:54:45.772Z,982.71
2017-03-06T22:55:26.172Z,982.71
2017-03-06T22:56:06.624Z,982.72
2017-03-06T22:56:47.090Z,982.72
2017-03-06T22:57:27.488Z,982.72
2017-03-06T22:58:08.006Z,982.72
2017-03-06T22:58:48.379Z,982.72
2017-03-06T22:59:28.777Z,982.72
2017-03-06T23:00:09.355Z,982.72
2017-03-06T23:00:49.700Z,982.72
2017-03-06T23:01:30.171Z,982.72
2017-03-06T23:02:10.584Z,982.72
2017-03-06T23:02:51.026Z,982.81
2017-03-06T23:03:31.409Z,982.81
2017-03-06T23:04:11.827Z,982.81
2017-03-06T23:04:52.290Z,982.81
